Airfield :
LOGIN :

Register | Disclaimer

   EN    FR    IT 

 










Legend :    VFR   Marginal VFR   IFR   Intensive IFR   Very Intensive IFR
Visi :
Ceiling :
>= 8 km
>= 3000ft
5 to 8 km
1000 to 3000 ft
1500m to 5 km
500 to 1000 ft
800 to 1500m
200 to 500 ft
< 800m
< 200 ft
Symbols :   Thunderstorms  Fog  Heavy snow  Heavy precipitations  Wind > 20 kt
SIGMETs :     Misc.  Thunderstorms  Icing  Turbulence  Mountain Waves  Volcanic Ashes






- Airport Elevation : 140 ft


ESTL - Ljungbyhed

CURRENT METAR :
  • 030250Z AUTO 14008KT 7000 BR OVC014/// 03/01 Q1009

EXPIRED METARs :
  • 030220Z AUTO 15007KT 7000 BR OVC013/// 03/01 Q1010
  • 030150Z AUTO 14008KT 110V170 7000 BR OVC014/// 03/01 Q1010
  • 030120Z AUTO 14008KT 7000 BR OVC015/// 03/01 Q1011
  • 030050Z AUTO 15008KT 7000 BR OVC012/// 03/01 Q1011
  • 030020Z AUTO 14008KT 7000 BR OVC014/// 03/01 Q1011

Expired Forecast.



MET'MAP, your aeronautical weather chart ! - Copyright ORBIFLY December 2007 - Disclaimer

ORBIFLY MET'MAP TEAM :

Programming & Development : Alexandra Zaïnal
Concept & original design : Baudouin d'Aumeries
Assistance for programming : Marc-Olivier Méhu
Technical & hardware support : Manuel Goepfert

Contact : metmap@orbifly.com




SOURCES & CREDITS :

   NOAA